Latest Weather Observations for Mount Magnet Airport

IDW60801

Issued at 10:03 pm WST Tuesday 12 December 2017 (issued every 30 minutes, with the page automatically refreshed every 10 minutes)

About weather observations | Map of weather stations | Latest weather observations for WA | Other Formats
Station Details ID: 007600 Name: MOUNT MAGNET AERO Lat: -28.12 Lon: 117.84 Height: 407.0 m
Data from the previous 72 hours. | See also: Recent months at Mount Magnet Airport
Date/Time
WST
Temp
°C
App
Temp
°C
Dew
Point
°C
Rel
Hum
%
Delta-T
°C
Wind Press
QNH
hPa
Press
MSL
hPa
Rain since
9am
mm
Dir  Spd
km/h
Gust
km/h
Spd
kts
Gust
kts
12/10:00pm 27.1 23.1 14.1 44 7.9 SW 28 35 15 19 1012.4 1009.6 0.0
12/09:30pm 27.9 22.6 14.2 43 8.4 SW 35 48 19 26 1012.0 1009.1 0.0
12/09:00pm 28.8 25.2 14.2 40 8.9 SW 26 35 14 19 1011.6 1008.7 0.0
12/08:30pm 29.5 25.4 13.7 38 9.6 SW 28 39 15 21 1011.1 1008.3 0.0
12/08:00pm 30.5 27.2 11.5 31 11.2 SW 20 28 11 15 1010.9 1008.1 0.0
12/07:30pm 31.0 27.9 10.4 28 12.0 SW 17 20 9 11 1010.6 1007.8 0.0
12/07:00pm 31.2 27.2 10.5 28 12.1 SW 22 30 12 16 1010.1 1007.3 0.0
12/06:30pm 31.7 27.9 11.0 28 12.2 WSW 22 32 12 17 1009.9 1007.0 0.0
12/06:00pm 32.4 28.9 11.0 27 12.7 SW 20 32 11 17 1009.8 1006.9 0.0
12/05:30pm 32.5 27.8 10.5 26 12.9 WSW 26 37 14 20 1009.5 1006.6 0.0
12/05:00pm 32.8 28.5 11.9 28 12.6 WSW 26 37 14 20 1009.5 1006.6 0.0
12/04:30pm 32.3 27.5 11.5 28 12.4 SW 28 39 15 21 1009.5 1006.6 0.0
12/04:00pm 33.5 28.5 10.8 25 13.4 WSW 28 37 15 20 1009.7 1006.8 0.0
12/03:35pm 33.5 28.6 11.4 26 13.2 WSW 28 46 15 25 1009.7 1006.8 0.0
12/03:30pm 33.5 27.7 10.8 25 13.4 SW 32 41 17 22 1009.8 1006.9 0.0
12/03:00pm 32.9 27.9 10.9 26 13.0 WSW 28 52 15 28 1009.8 1006.9 0.0
12/02:37pm 34.1 29.2 11.3 25 13.6 W 28 50 15 27 1009.8 1006.9 0.0
12/02:30pm 34.8 29.5 11.2 24 14.1 W 30 43 16 23 1009.9 1007.0 0.0
12/02:00pm 33.7 28.7 10.9 25 13.5 W 28 43 15 23 1010.0 1007.1 0.0
12/01:30pm 33.1 27.9 10.4 25 13.3 W 28 43 15 23 1010.3 1007.5 0.0
12/01:00pm 33.0 27.3 9.7 24 13.5 W 30 52 16 28 1010.5 1007.7 0.0
12/12:52pm 33.3 27.4 10.6 25 13.4 W 32 52 17 28 1010.5 1007.7 0.0
12/12:30pm 32.1 26.8 11.3 28 12.3 WNW 30 43 16 23 1010.9 1008.1 0.0
12/12:00pm 31.9 27.3 12.2 30 11.8 WNW 28 44 15 24 1011.1 1008.3 0.0
12/11:30am 31.5 26.9 12.3 31 11.5 W 28 43 15 23 1011.6 1008.7 0.0
12/11:00am 29.3 24.4 12.7 36 9.9 WNW 30 41 16 22 1011.9 1009.0 0.0
12/10:30am 30.0 26.6 13.7 37 9.9 WNW 24 30 13 16 1012.3 1009.5 0.0
12/10:00am 28.3 25.3 13.8 41 8.8 W 22 32 12 17 1012.4 1009.6 0.0
12/09:30am 27.4 24.1 14.1 44 8.1 WNW 24 32 13 17 1012.6 1009.8 0.0
12/09:00am 26.0 24.2 14.5 49 7.0 W 17 24 9 13 1012.6 1009.8 1.8
12/08:30am 25.3 23.7 15.0 53 6.3 W 17 26 9 14 1012.8 1010.0 1.8
12/08:00am 24.5 23.3 15.1 55 5.7 W 15 22 8 12 1012.7 1009.9 1.8
12/07:30am 23.6 23.1 15.9 62 4.7 WNW 13 20 7 11 1012.7 1009.9 1.8
12/07:00am 22.4 22.8 16.4 69 3.7 NNW 9 11 5 6 1012.6 1009.8 1.8
12/06:30am 21.7 22.2 16.6 73 3.2 NW 9 13 5 7 1012.4 1009.6 1.8
12/06:00am 21.2 21.0 16.6 75 2.8 WNW 13 17 7 9 1012.0 1009.1 1.8
12/05:30am 20.8 21.2 16.4 76 2.7 WNW 9 13 5 7 1011.8 1008.9 1.8
12/05:00am 20.8 20.8 16.2 75 2.8 WSW 11 13 6 7 1011.5 1008.6 1.8
12/04:30am 21.2 21.5 16.0 72 3.2 WSW 9 13 5 7 1011.0 1008.2 1.8
12/04:00am 21.7 22.0 16.0 70 3.5 WSW 9 13 5 7 1010.8 1008.0 1.8
12/03:30am 22.3 21.6 16.3 69 3.7 WSW 15 19 8 10 1010.8 1008.0 1.8
12/03:00am 22.7 21.2 16.3 67 4.0 WSW 19 26 10 14 1010.7 1007.9 1.8
12/02:30am 23.2 21.7 16.3 65 4.3 WSW 19 26 10 14 1010.5 1007.7 1.8
12/02:00am 23.7 22.2 16.2 63 4.6 SW 19 26 10 14 1010.5 1007.7 1.8
12/01:30am 24.3 22.6 16.3 61 5.0 SW 20 30 11 16 1010.7 1007.9 1.8
12/01:00am 24.7 23.1 16.4 60 5.2 SW 20 28 11 15 1010.8 1008.0 1.8
12/12:30am 25.3 22.6 16.7 59 5.4 SW 26 35 14 19 1011.0 1008.2 1.8
12/12:00am 26.1 23.1 16.9 57 5.8 SW 28 39 15 21 1011.1 1008.3 1.8
 
Date/Time
WST
Temp
°C
App
Temp
°C
Dew
Point
°C
Rel
Hum
%
Delta-T
°C
Wind Press
QNH
hPa
Press
MSL
hPa
Rain since
9am
mm
Dir  Spd
km/h
Gust
km/h
Spd
kts
Gust
kts
11/11:30pm 27.0 23.7 16.9 54 6.4 WSW 30 44 16 24 1010.9 1008.1 1.8
11/11:00pm 28.5 24.7 13.6 40 9.0 WSW 26 35 14 19 1010.8 1008.0 1.8
11/10:30pm 30.0 26.0 8.4 26 12.1 W 19 22 10 12 1010.6 1007.8 1.8
11/10:00pm 30.6 26.8 8.9 26 12.3 W 19 22 10 12 1010.6 1007.8 1.8
11/09:30pm 31.3 27.3 8.3 24 13.0 W 19 24 10 13 1010.3 1007.5 1.8
11/09:00pm 32.1 28.1 8.4 23 13.4 W 19 24 10 13 1010.0 1007.1 1.8
11/08:30pm 32.7 28.5 8.2 22 13.9 WNW 20 30 11 16 1009.5 1006.6 1.8
11/08:00pm 33.4 29.7 8.1 21 14.4 WNW 17 24 9 13 1009.2 1006.3 1.8
11/07:30pm 34.0 30.3 9.3 22 14.3 WNW 19 24 10 13 1008.9 1006.0 1.8
11/07:00pm 34.7 29.8 8.4 20 15.1 WNW 24 35 13 19 1008.5 1005.7 1.8
11/06:30pm 35.4 29.9 9.0 20 15.3 NW 28 37 15 20 1008.3 1005.5 1.8
11/06:00pm 36.4 30.1 7.4 17 16.5 NW 30 39 16 21 1008.0 1005.2 1.8
11/05:30pm 36.4 29.5 7.4 17 16.5 NW 33 44 18 24 1007.9 1005.1 1.8
11/05:00pm 36.9 28.8 7.0 16 17.0 NW 39 52 21 28 1007.9 1005.1 1.8
11/04:44pm 38.0 31.0 5.9 14 18.0 NW 32 56 17 30 1007.7 1004.8 1.8
11/04:30pm 38.0 30.0 5.9 14 18.0 NNW 37 54 20 29 1007.8 1005.0 1.8
11/04:00pm 38.3 31.1 6.1 14 18.2 NNW 33 52 18 28 1007.9 1005.1 1.8
11/03:30pm 38.2 31.2 6.0 14 18.1 NNW 32 52 17 28 1007.9 1005.1 1.8
11/03:25pm 38.1 34.0 7.9 16 17.4 N 19 48 10 26 1008.1 1005.3 1.8
11/03:00pm 38.2 31.2 7.0 15 17.8 NNW 33 46 18 25 1008.3 1005.5 1.4
11/02:33pm 38.4 31.4 6.2 14 18.2 NW 32 50 17 27 1008.6 1005.8 1.4
11/02:30pm 37.5 31.8 8.3 17 16.9 NW 28 43 15 23 1008.6 1005.8 1.4
11/02:11pm 37.0 30.8 7.9 17 16.7 NNW 30 52 16 28 1009.0 1006.1 0.0
11/02:00pm 37.4 30.5 7.3 16 17.2 N 33 46 18 25 1009.2 1006.3 0.0
11/01:30pm 36.5 29.7 9.2 19 16.0 NW 35 54 19 29 1009.5 1006.6 0.0
11/01:11pm 37.4 31.3 9.9 19 16.3 NNW 32 50 17 27 1009.7 1006.8 0.0
11/01:00pm 37.2 30.3 8.9 18 16.5 NNW 35 50 19 27 1009.9 1007.0 0.0
11/12:30pm 35.9 29.9 10.9 22 15.0 NNW 33 48 18 26 1010.4 1007.6 0.0
11/12:00pm 35.3 30.1 11.7 24 14.3 NNW 30 54 16 29 1010.8 1008.0 0.0
11/11:53am 35.6 30.1 10.6 22 14.9 N 30 54 16 29 1010.9 1008.1 0.0
11/11:30am 35.5 30.4 13.1 26 13.8 N 32 43 17 23 1011.2 1008.4 0.0
11/11:00am 33.7 28.8 13.7 30 12.4 N 32 44 17 24 1011.8 1008.9 0.0
11/10:30am 33.2 28.3 13.8 31 12.0 N 32 46 17 25 1012.2 1009.3 0.0
11/10:11am 33.6 29.0 14.6 31 11.9 N 32 50 17 27 1012.3 1009.5 0.0
11/10:00am 32.6 28.0 15.1 34 11.0 N 33 43 18 23 1012.5 1009.7 0.0
11/09:30am 31.8 26.9 15.3 37 10.4 N 35 46 19 25 1012.7 1009.9 0.0
11/09:00am 30.6 26.4 16.2 41 9.1 N 33 46 18 25 1012.9 1010.1 1.8
11/08:30am 28.8 24.3 16.4 47 7.8 N 35 44 19 24 1013.0 1010.2 1.8
11/08:00am 28.2 23.7 16.5 49 7.4 N 35 46 19 25 1013.1 1010.3 1.8
11/07:30am 27.3 23.7 17.2 54 6.4 N 32 41 17 22 1013.1 1010.3 1.8
11/07:00am 26.4 22.2 17.2 57 5.8 N 35 48 19 26 1012.9 1010.1 1.8
11/06:53am 26.3 23.0 17.1 57 5.8 N 30 48 16 26 1012.7 1009.9 1.8
11/06:30am 25.6 23.6 17.3 60 5.3 NNE 24 35 13 19 1012.6 1009.8 1.8
11/06:00am 24.5 23.0 16.7 61 4.9 NE 20 30 11 16 1012.2 1009.3 1.8
11/05:30am 23.6 22.7 15.9 62 4.7 NE 15 20 8 11 1011.9 1009.0 1.8
11/05:00am 22.7 21.9 15.0 61 4.7 NE 13 15 7 8 1011.6 1008.7 1.8
11/04:30am 22.7 21.1 14.0 58 5.2 ENE 15 19 8 10 1011.2 1008.4 1.8
11/04:00am 22.5 21.4 13.0 55 5.6 ENE 11 13 6 7 1011.1 1008.3 1.8
11/03:30am 22.1 20.7 12.1 53 5.7 ENE 11 15 6 8 1010.9 1008.1 1.8
11/03:00am 21.6 20.5 11.9 54 5.5 E 9 11 5 6 1010.7 1007.9 1.8
11/02:30am 21.6 20.1 11.9 54 5.5 E 11 15 6 8 1010.6 1007.8 1.8
11/02:00am 21.8 20.4 12.1 54 5.6 E 11 17 6 9 1010.7 1007.9 1.8
11/01:30am 22.6 20.7 11.7 50 6.2 ESE 13 17 7 9 1011.0 1008.2 1.8
11/01:00am 22.5 20.7 12.2 52 5.9 ESE 13 20 7 11 1011.2 1008.4 1.8
11/12:30am 22.8 21.9 12.7 53 5.9 S 9 13 5 7 1011.8 1008.9 1.8
11/12:00am 23.6 22.1 12.0 48 6.7 E 11 13 6 7 1011.8 1008.9 1.8
 
Date/Time
WST
Temp
°C
App
Temp
°C
Dew
Point
°C
Rel
Hum
%
Delta-T
°C
Wind Press
QNH
hPa
Press
MSL
hPa
Rain since
9am
mm
Dir  Spd
km/h
Gust
km/h
Spd
kts
Gust
kts
10/11:30pm 24.7 21.5 11.3 43 7.7 S 19 24 10 13 1012.3 1009.5 1.8
10/11:00pm 25.9 23.6 10.5 38 8.8 ENE 13 17 7 9 1012.0 1009.1 1.8
10/10:30pm 26.4 24.1 10.5 37 9.1 ENE 13 17 7 9 1012.2 1009.3 1.8
10/10:00pm 26.9 23.8 10.2 35 9.5 ENE 17 24 9 13 1012.1 1009.2 1.8
10/09:30pm 27.3 23.1 9.6 33 10.0 ENE 22 30 12 16 1012.0 1009.1 1.8
10/09:00pm 27.6 23.3 9.4 32 10.3 ENE 22 32 12 17 1012.0 1009.1 1.8
10/08:30pm 27.9 24.4 10.1 33 10.2 E 19 22 10 12 1012.0 1009.1 1.8
10/08:00pm 28.6 24.4 9.8 31 10.7 E 22 32 12 17 1011.6 1008.7 1.8
10/07:30pm 29.2 24.3 9.9 30 11.0 E 26 33 14 18 1011.5 1008.6 1.8
10/07:00pm 29.8 24.7 9.3 28 11.7 E 26 35 14 19 1011.1 1008.3 1.8
10/06:30pm 30.6 24.7 8.9 26 12.3 E 30 43 16 23 1011.1 1008.3 1.8
10/06:00pm 31.4 25.5 9.0 25 12.8 ESE 30 41 16 22 1010.7 1007.9 1.8
10/05:30pm 31.6 26.3 9.8 26 12.6 ESE 28 41 15 22 1010.8 1008.0 1.8
10/05:00pm 31.9 26.6 10.0 26 12.7 E 28 39 15 21 1010.9 1008.1 1.8
10/04:30pm 31.6 25.3 9.8 26 12.6 ESE 33 44 18 24 1010.9 1008.1 1.8
10/04:00pm 31.7 25.2 10.4 27 12.4 E 35 46 19 25 1011.1 1008.3 1.8
10/03:30pm 31.4 24.6 10.7 28 12.1 ESE 37 52 20 28 1011.5 1008.6 1.8
10/03:00pm 30.9 24.1 10.8 29 11.8 ESE 37 54 20 29 1011.7 1008.8 1.8
10/02:39pm 31.1 25.2 12.5 32 11.2 ESE 35 54 19 29 1011.9 1009.0 1.8
10/02:30pm 30.3 23.7 11.3 31 11.2 ESE 37 50 20 27 1011.9 1009.0 1.8
10/02:00pm 29.9 23.8 11.9 33 10.7 ESE 35 50 19 27 1012.3 1009.5 1.8
10/01:30pm 28.1 23.0 13.2 39 8.9 ESE 32 48 17 26 1012.8 1010.0 1.8
10/01:00pm 26.4 24.1 16.6 55 6.2 SE 24 32 13 17 1013.3 1010.5 1.8
10/12:30pm 26.9 25.1 15.9 51 6.9 ESE 20 26 11 14 1013.3 1010.5 1.6
10/12:00pm 25.2 23.3 14.3 50 6.6 ESE 17 22 9 12 1013.4 1010.6 1.6
10/11:30am 26.0 22.6 13.8 47 7.3 SE 24 33 13 18 1013.3 1010.5 1.6
10/11:00am 24.2 20.9 15.1 56 5.5 SE 26 35 14 19 1013.0 1010.2 1.6
10/10:30am 21.9 18.1 15.7 68 3.8 SE 30 41 16 22 1013.5 1010.7 1.6
10/10:00am 20.7 18.0 16.5 77 2.6 ESE 26 39 14 21 1014.2 1011.3 1.4
10/09:30am 23.0 21.4 15.1 61 4.8 SE 17 26 9 14 1015.9 1013.1 0.0
10/09:00am 22.2 19.8 16.5 70 3.5 E 24 33 13 18 1015.2 1012.4 7.2
10/08:30am 22.0 19.9 16.1 69 3.6 ESE 22 28 12 15 1015.7 1012.9 7.2
10/08:00am 22.9 20.8 15.2 62 4.7 SE 20 32 11 17 1015.7 1012.9 7.2
10/07:30am 21.9 19.3 16.0 69 3.6 S 24 35 13 19 1015.3 1012.5 7.2
10/07:00am 21.0 20.4 16.6 76 2.7 SW 15 20 8 11 1016.2 1013.4 7.2
10/06:30am 20.5 20.2 16.5 78 2.5 ESE 13 19 7 10 1015.4 1012.6 7.2
10/06:00am 20.4 20.2 16.8 80 2.2 E 13 20 7 11 1015.5 1012.7 7.0
10/05:30am 20.9 19.3 16.5 76 2.7 NE 20 26 11 14 1015.7 1012.9 6.4
10/05:20am 21.0 19.4 16.0 73 3.1 ENE 19 28 10 15 1015.7 1012.9 6.2
10/05:00am 21.5 19.7 15.6 69 3.6 ESE 19 26 10 14 1013.6 1010.8 6.2
10/04:30am 21.6 19.2 15.4 68 3.8 SE 22 32 12 17 1013.4 1010.6 6.2
10/04:00am 21.5 18.1 15.8 70 3.5 SE 28 35 15 19 1013.7 1010.9 6.2
10/03:30am 21.0 19.1 15.8 72 3.2 ESE 20 30 11 16 1013.2 1010.4 5.6
10/03:00am 21.1 20.2 15.9 72 3.2 E 15 19 8 10 1014.1 1011.2 5.4
10/02:30am 21.2 21.1 16.0 72 3.2 ENE 11 15 6 8 1014.5 1011.7 5.4
10/02:00am 21.2 21.3 15.5 70 3.5 NW 9 13 5 7 1014.8 1012.0 5.4
10/01:30am 21.4 21.8 14.8 66 4.0 SSW 6 9 3 5 1013.8 1011.0 5.4
10/01:00am 21.6 20.8 15.0 66 4.0 SSE 13 17 7 9 1013.4 1010.6 5.4
10/12:30am 22.1 20.9 15.0 64 4.3 SE 15 20 8 11 1013.4 1010.6 5.4
10/12:00am 22.6 21.5 14.4 60 4.9 SE 13 19 7 10 1013.6 1010.8 5.4
 
Date/Time
WST
Temp
°C
App
Temp
°C
Dew
Point
°C
Rel
Hum
%
Delta-T
°C
Wind Press
QNH
hPa
Press
MSL
hPa
Rain since
9am
mm
Dir  Spd
km/h
Gust
km/h
Spd
kts
Gust
kts
09/11:30pm 22.6 19.8 14.4 60 4.9 SSE 22 32 12 17 1013.3 1010.5 5.4
09/11:00pm 22.5 19.0 14.4 60 4.8 SSE 26 32 14 17 1013.7 1010.9 5.4
09/10:30pm 22.2 19.5 14.6 62 4.6 SE 22 28 12 15 1015.2 1012.4 5.4

Other Formats:

Comma delimited format used in spreadsheet applications
http://www.bom.gov.au/fwo/IDW60801/IDW60801.94429.axf

JavaScript Object Notation format (JSON) in row-major order
http://www.bom.gov.au/fwo/IDW60801/IDW60801.94429.json